Time;durP1;ratioP1;P1;durP2;ratioP2;P2;SDS_P1;SDS_P2;PMS_P1;PMS_P2;Temp;Humidity;BMP_temperature;BMP_pressure;BME280_temperature;BME280_humidity;BME280_pressure;Samples;Min_cycle;Max_cycle;Signal;HPM_P1;HPM_P2
2022/02/21 00:00:47;;;;;;;;;;;;;;;29.50;21.14;100859.75;5074757;28;1898;-38
2022/02/21 00:03:15;;;;;;;;;;;;;;;29.33;21.58;100854.59;5075113;28;1526;-37
2022/02/21 00:05:40;;;;;;;;;;;;;;;29.26;21.76;100853.72;5078306;28;821;-37
2022/02/21 00:08:05;;;;;;;;;;;;;;;28.93;21.76;100849.63;5078340;28;836;-37
2022/02/21 00:10:31;;;;;;;;;;;;;;;29.21;21.37;100854.31;5078079;28;1051;-37
2022/02/21 00:12:56;;;;;;;;;;;;;;;29.68;21.03;100852.00;5078496;28;793;-39
2022/02/21 00:15:24;;;;;;;;;;;;;;;29.55;21.57;100850.00;5077639;28;883;-39
2022/02/21 00:17:50;;;;;;;;;;;;;;;29.42;21.90;100852.59;5078275;28;909;-37
2022/02/21 00:20:15;;;;;;;;;;;;;;;29.28;21.73;100847.06;5078909;28;824;-37
2022/02/21 00:22:40;;;;;;;;;;;;;;;29.03;21.74;100852.91;5078173;28;1959;-39
2022/02/21 00:25:06;;;;;;;;;;;;;;;29.02;21.79;100858.50;5078051;28;894;-37
2022/02/21 00:27:31;;;;;;;;;;;;;;;29.62;21.21;100857.38;5072901;28;793;-37
2022/02/21 00:29:57;;;;;;;;;;;;;;;29.61;21.24;100855.69;5078481;28;741;-38
2022/02/21 00:32:22;;;;;;;;;;;;;;;29.42;22.01;100858.03;5077412;28;1265;-38
2022/02/21 00:34:47;;;;;;;;;;;;;;;29.35;21.63;100868.81;5078020;28;765;-37
2022/02/21 00:37:12;;;;;;;;;;;;;;;28.89;21.82;100867.31;5078005;28;849;-37
2022/02/21 00:39:38;;;;;;;;;;;;;;;29.27;21.59;100861.66;5076556;28;881;-39
2022/02/21 00:42:04;;;;;;;;;;;;;;;29.58;21.16;100856.88;5077975;28;1930;-37
2022/02/21 00:44:29;;;;;;;;;;;;;;;29.37;21.35;100857.78;5078130;28;799;-38
2022/02/21 00:46:56;;;;;;;;;;;;;;;29.26;21.60;100843.72;5075096;28;849;-38
2022/02/21 00:49:21;;;;;;;;;;;;;;;29.22;21.63;100839.75;5077682;28;865;-38
2022/02/21 00:51:46;;;;;;;;;;;;;;;29.29;21.31;100837.94;5077139;28;845;-39
2022/02/21 00:54:12;;;;;;;;;;;;;;;29.26;21.31;100832.06;5077671;28;809;-39
2022/02/21 00:56:37;;;;;;;;;;;;;;;29.14;21.38;100835.31;5078056;28;828;-39
2022/02/21 00:59:02;;;;;;;;;;;;;;;29.56;21.33;100827.25;5077565;28;837;-39
2022/02/21 01:01:28;;;;;;;;;;;;;;;29.39;21.74;100825.91;5076314;28;1973;-39
2022/02/21 01:03:53;;;;;;;;;;;;;;;29.26;21.58;100823.94;5077794;28;726;-39
2022/02/21 01:06:19;;;;;;;;;;;;;;;28.93;21.89;100825.25;5076560;28;905;-38
2022/02/21 01:08:44;;;;;;;;;;;;;;;28.95;21.71;100821.34;5077631;28;933;-39
2022/02/21 01:11:10;;;;;;;;;;;;;;;29.56;21.16;100823.75;5077848;28;1075;-39
2022/02/21 01:13:35;;;;;;;;;;;;;;;29.59;21.15;100820.66;5077308;28;845;-38
2022/02/21 01:16:01;;;;;;;;;;;;;;;29.46;21.70;100824.91;5070691;28;887;-38
2022/02/21 01:18:26;;;;;;;;;;;;;;;29.32;21.55;100832.13;5072975;28;861;-38
2022/02/21 01:20:51;;;;;;;;;;;;;;;28.93;21.93;100827.97;5077067;28;1897;-38
2022/02/21 01:23:17;;;;;;;;;;;;;;;28.93;21.82;100822.56;5077232;28;793;-39
2022/02/21 01:25:42;;;;;;;;;;;;;;;29.02;21.53;100818.72;5077540;28;786;-39
2022/02/21 01:28:07;;;;;;;;;;;;;;;29.20;21.96;100820.97;5073254;28;1407;-38
2022/02/21 01:30:33;;;;;;;;;;;;;;;29.30;21.53;100817.06;5069810;28;778;-38
2022/02/21 01:32:58;;;;;;;;;;;;;;;29.26;21.34;100813.09;5070053;28;1158;-38
2022/02/21 01:35:24;;;;;;;;;;;;;;;29.20;21.32;100814.72;5076621;28;768;-37
2022/02/21 01:37:50;;;;;;;;;;;;;;;29.09;21.39;100819.63;5076939;28;837;-37
2022/02/21 01:40:16;;;;;;;;;;;;;;;29.04;21.64;100816.69;5076970;28;772;-38
2022/02/21 01:42:41;;;;;;;;;;;;;;;29.22;21.23;100818.06;5075616;28;1965;-38
2022/02/21 01:45:07;;;;;;;;;;;;;;;28.94;21.65;100818.84;5076544;28;887;-38
2022/02/21 01:47:32;;;;;;;;;;;;;;;29.37;21.03;100812.56;5074546;28;869;-37
2022/02/21 01:49:57;;;;;;;;;;;;;;;29.68;20.77;100810.47;5076362;28;818;-36
2022/02/21 01:52:23;;;;;;;;;;;;;;;29.46;21.20;100813.25;5076216;28;828;-38
2022/02/21 01:54:50;;;;;;;;;;;;;;;29.33;21.44;100820.22;5075425;28;825;-37
2022/02/21 01:57:15;;;;;;;;;;;;;;;28.97;21.69;100818.47;5075633;28;981;-36
2022/02/21 01:59:40;;;;;;;;;;;;;;;28.85;21.67;100818.13;5076261;28;854;-37
2022/02/21 02:02:06;;;;;;;;;;;;;;;29.02;21.40;100816.03;5075828;28;1897;-36
2022/02/21 02:04:31;;;;;;;;;;;;;;;29.48;21.02;100811.16;5076173;28;1521;-36
2022/02/21 02:06:56;;;;;;;;;;;;;;;29.41;21.91;100813.00;5076016;28;1492;-37
2022/02/21 02:09:22;;;;;;;;;;;;;;;29.32;21.40;100815.88;5075655;28;845;-37
2022/02/21 02:11:47;;;;;;;;;;;;;;;28.95;21.59;100812.38;5075843;28;1197;-39
2022/02/21 02:14:42;;;;;;;;;;;;;;;28.92;21.43;100797.38;5076337;28;869;-36
2022/02/21 02:17:08;;;;;;;;;;;;;;;29.03;21.35;100808.75;5057809;28;1195;-37
2022/02/21 02:19:33;;;;;;;;;;;;;;;29.21;21.35;100802.84;5076144;28;833;-37
2022/02/21 02:22:17;;;;;;;;;;;;;;;29.28;21.36;100794.78;5076002;28;1903;-38
2022/02/21 02:24:48;;;;;;;;;;;;;;;29.20;21.24;100793.03;5076089;28;820;-37
2022/02/21 02:27:14;;;;;;;;;;;;;;;29.15;21.42;100809.03;5075888;28;766;-38
2022/02/21 02:29:40;;;;;;;;;;;;;;;29.08;21.51;100808.97;5076286;28;772;-38
2022/02/21 02:32:05;;;;;;;;;;;;;;;28.98;21.30;100811.19;5075241;28;1503;-38
2022/02/21 02:34:31;;;;;;;;;;;;;;;29.24;21.20;100801.59;5075106;28;856;-37
2022/02/21 02:36:56;;;;;;;;;;;;;;;29.14;21.16;100808.22;5075885;28;809;-37
2022/02/21 02:39:23;;;;;;;;;;;;;;;29.15;21.17;100809.03;5075335;28;880;-38
2022/02/21 02:41:48;;;;;;;;;;;;;;;29.58;20.88;100811.66;5075482;28;1971;-38
2022/02/21 02:44:13;;;;;;;;;;;;;;;29.45;20.90;100804.28;5074249;28;1144;-38
2022/02/21 02:46:39;;;;;;;;;;;;;;;29.37;21.23;100809.00;5069523;28;995;-38
2022/02/21 02:49:04;;;;;;;;;;;;;;;29.18;21.09;100809.47;5072818;28;967;-38
2022/02/21 02:51:29;;;;;;;;;;;;;;;28.83;21.78;100807.47;5074808;28;825;-38
2022/02/21 02:53:55;;;;;;;;;;;;;;;28.99;21.42;100799.31;5073936;28;856;-38
2022/02/21 02:56:20;;;;;;;;;;;;;;;29.04;21.52;100794.16;5075446;28;865;-36
2022/02/21 02:58:45;;;;;;;;;;;;;;;29.23;21.29;100803.47;5075211;28;826;-39
2022/02/21 03:01:10;;;;;;;;;;;;;;;29.32;21.68;100804.19;5071918;28;1953;-38
2022/02/21 03:03:36;;;;;;;;;;;;;;;29.25;21.54;100801.41;5071339;28;924;-38
2022/02/21 03:06:01;;;;;;;;;;;;;;;29.18;21.59;100808.63;5075470;28;972;-37
2022/02/21 03:08:26;;;;;;;;;;;;;;;29.06;21.39;100802.94;5075216;28;908;-37
2022/02/21 03:10:52;;;;;;;;;;;;;;;29.29;21.14;100799.16;5074988;28;1024;-38
2022/02/21 03:13:17;;;;;;;;;;;;;;;29.05;21.42;100796.66;5068297;28;798;-37
2022/02/21 03:15:42;;;;;;;;;;;;;;;29.40;21.26;100785.06;5074838;28;873;-37
2022/02/21 03:18:09;;;;;;;;;;;;;;;29.70;20.61;100795.72;5075326;28;931;-38
2022/02/21 03:20:34;;;;;;;;;;;;;;;29.69;20.67;100791.34;5074951;28;741;-37
2022/02/21 03:23:00;;;;;;;;;;;;;;;29.46;21.23;100794.28;5074963;28;1979;-38
2022/02/21 03:25:25;;;;;;;;;;;;;;;29.32;21.29;100798.75;5074857;28;1531;-37
2022/02/21 03:27:50;;;;;;;;;;;;;;;28.99;21.48;100794.75;5075094;28;821;-39
2022/02/21 03:30:15;;;;;;;;;;;;;;;29.06;21.59;100792.91;5074493;28;934;-38
2022/02/21 03:32:41;;;;;;;;;;;;;;;29.06;21.44;100778.56;5072454;28;1189;-37
2022/02/21 03:35:06;;;;;;;;;;;;;;;29.09;21.40;100770.84;5074920;28;738;-38
2022/02/21 03:37:32;;;;;;;;;;;;;;;29.42;21.56;100774.88;5072258;28;821;-37
2022/02/21 03:39:57;;;;;;;;;;;;;;;29.38;21.68;100764.63;5071147;28;845;-37
2022/02/21 03:42:22;;;;;;;;;;;;;;;29.29;21.47;100767.50;5074671;28;1985;-37
2022/02/21 03:44:48;;;;;;;;;;;;;;;29.15;21.36;100769.25;5074919;28;1429;-37
2022/02/21 03:47:13;;;;;;;;;;;;;;;29.19;21.32;100777.81;5074463;28;1024;-37
2022/02/21 03:49:38;;;;;;;;;;;;;;;29.23;21.34;100772.84;5074490;28;865;-37
2022/02/21 03:52:04;;;;;;;;;;;;;;;29.52;21.08;100776.38;5074580;28;883;-37
2022/02/21 03:54:29;;;;;;;;;;;;;;;29.48;21.28;100767.78;5075141;28;754;-36
2022/02/21 03:56:54;;;;;;;;;;;;;;;29.38;21.55;100764.63;5074483;28;816;-37
2022/02/21 03:59:20;;;;;;;;;;;;;;;28.98;21.65;100748.91;5075261;28;828;-37
2022/02/21 04:01:45;;;;;;;;;;;;;;;29.05;21.76;100753.34;5067852;28;1898;-37
2022/02/21 04:04:10;;;;;;;;;;;;;;;29.08;21.64;100747.53;5070824;28;893;-37
2022/02/21 04:06:35;;;;;;;;;;;;;;;29.52;21.26;100741.13;5079018;28;745;-38
2022/02/21 04:09:01;;;;;;;;;;;;;;;29.42;21.50;100736.94;5078153;28;821;-37
2022/02/21 04:11:26;;;;;;;;;;;;;;;29.34;21.51;100747.94;5078160;28;1063;-37
2022/02/21 04:13:51;;;;;;;;;;;;;;;28.95;21.93;100744.69;5079001;28;766;-37
2022/02/21 04:16:17;;;;;;;;;;;;;;;29.00;21.80;100746.81;5076149;28;847;-38
2022/02/21 04:18:42;;;;;;;;;;;;;;;28.92;21.27;100745.06;5071139;28;1003;-38
2022/02/21 04:21:07;;;;;;;;;;;;;;;28.71;20.83;100746.78;5078473;28;1905;-37
2022/02/21 04:23:33;;;;;;;;;;;;;;;27.86;18.55;100745.41;5076787;28;782;-44
2022/02/21 04:25:58;;;;;;;;;;;;;;;25.88;20.60;100748.44;5077803;28;838;-45
2022/02/21 04:28:23;;;;;;;;;;;;;;;26.60;21.66;100755.66;5078172;28;907;-45
2022/02/21 04:30:48;;;;;;;;;;;;;;;26.92;22.24;100752.91;5072584;28;871;-45
2022/02/21 04:33:14;;;;;;;;;;;;;;;27.12;21.82;100746.00;5077866;28;1177;-46
2022/02/21 04:35:39;;;;;;;;;;;;;;;27.30;21.82;100733.16;5077940;28;816;-45
2022/02/21 04:38:04;;;;;;;;;;;;;;;27.35;21.65;100734.31;5077691;28;884;-45
2022/02/21 04:40:30;;;;;;;;;;;;;;;27.40;21.21;100725.63;5077397;28;734;-45
2022/02/21 04:42:56;;;;;;;;;;;;;;;27.38;21.56;100735.78;5073795;28;1910;-46
2022/02/21 04:45:21;;;;;;;;;;;;;;;26.97;21.22;100734.28;5069892;28;839;-45
2022/02/21 04:47:47;;;;;;;;;;;;;;;26.08;20.65;100723.75;5077532;28;850;-45
2022/02/21 04:50:12;;;;;;;;;;;;;;;25.02;21.46;100722.88;5077460;28;873;-45
2022/02/21 04:52:38;;;;;;;;;;;;;;;24.06;22.40;100721.34;5077692;28;809;-45
2022/02/21 04:55:03;;;;;;;;;;;;;;;24.02;22.07;100716.47;5081064;28;1408;-45
2022/02/21 04:57:29;;;;;;;;;;;;;;;24.87;23.15;100717.31;5084293;28;1372;-38
2022/02/21 04:59:54;;;;;;;;;;;;;;;25.31;23.29;100707.16;5081465;28;1554;-36
2022/02/21 05:02:19;;;;;;;;;;;;;;;25.87;22.98;100710.88;5077678;28;1902;-36
2022/02/21 05:04:44;;;;;;;;;;;;;;;25.85;22.39;100707.53;5087327;28;1325;-36
2022/02/21 05:07:10;;;;;;;;;;;;;;;25.25;22.41;100716.78;5079679;28;1600;-36
2022/02/21 05:09:35;;;;;;;;;;;;;;;25.01;21.67;100726.56;5074110;28;1079;-39
2022/02/21 05:12:00;;;;;;;;;;;;;;;24.50;22.04;100727.53;5074483;28;1171;-38
2022/02/21 05:14:26;;;;;;;;;;;;;;;24.46;22.08;100735.06;5076400;28;1265;-39
2022/02/21 05:16:51;;;;;;;;;;;;;;;24.45;21.87;100733.41;5073974;28;1202;-37
2022/02/21 05:19:17;;;;;;;;;;;;;;;24.21;21.64;100729.66;5077752;28;1229;-38
2022/02/21 05:21:42;;;;;;;;;;;;;;;23.93;22.39;100729.88;5076616;28;1961;-37
2022/02/21 05:24:07;;;;;;;;;;;;;;;24.00;22.38;100724.69;5076763;28;1179;-37
2022/02/21 05:26:33;;;;;;;;;;;;;;;24.20;22.08;100732.50;5076471;28;1182;-38
2022/02/21 05:28:58;;;;;;;;;;;;;;;23.86;22.53;100742.25;5076409;28;1162;-37
2022/02/21 05:31:23;;;;;;;;;;;;;;;24.29;23.06;100746.81;5076089;28;1300;-36
2022/02/21 05:33:48;;;;;;;;;;;;;;;24.58;22.42;100759.81;5071201;28;1210;-37
2022/02/21 05:36:14;;;;;;;;;;;;;;;24.76;22.25;100753.44;5073185;28;1160;-37
2022/02/21 05:38:39;;;;;;;;;;;;;;;24.95;22.05;100756.84;5071816;28;1387;-38
2022/02/21 05:41:04;;;;;;;;;;;;;;;24.66;23.88;100747.38;5076925;28;1969;-38
2022/02/21 05:43:30;;;;;;;;;;;;;;;24.57;24.45;100741.97;5073463;28;1422;-37
2022/02/21 05:45:55;;;;;;;;;;;;;;;25.03;23.89;100735.31;5076670;28;1313;-37
2022/02/21 05:48:20;;;;;;;;;;;;;;;25.38;23.13;100740.47;5080821;28;1530;-36
2022/02/21 05:50:45;;;;;;;;;;;;;;;25.69;22.73;100738.94;5081796;28;1233;-38
2022/02/21 05:53:11;;;;;;;;;;;;;;;25.87;22.97;100738.69;5079177;28;1486;-39
2022/02/21 05:55:36;;;;;;;;;;;;;;;25.96;22.65;100736.78;5076262;28;745;-38
2022/02/21 05:58:02;;;;;;;;;;;;;;;25.98;22.46;100733.91;5072987;28;856;-39
2022/02/21 06:00:27;;;;;;;;;;;;;;;26.17;22.29;100730.75;5075122;28;872;-36
2022/02/21 06:02:52;;;;;;;;;;;;;;;26.28;22.42;100726.00;5075583;28;1901;-38
2022/02/21 06:05:18;;;;;;;;;;;;;;;26.26;22.44;100719.94;5077706;28;799;-38
2022/02/21 06:07:43;;;;;;;;;;;;;;;26.34;22.52;100719.09;5075464;28;805;-37
2022/02/21 06:10:09;;;;;;;;;;;;;;;26.28;22.30;100713.34;5075293;28;1218;-37
2022/02/21 06:12:34;;;;;;;;;;;;;;;26.26;22.26;100710.00;5077413;28;1435;-36
2022/02/21 06:14:59;;;;;;;;;;;;;;;26.29;22.25;100714.22;5081190;28;1490;-37
2022/02/21 06:17:24;;;;;;;;;;;;;;;26.40;22.42;100724.63;5077064;28;1257;-37
2022/02/21 06:19:50;;;;;;;;;;;;;;;26.55;22.08;100722.97;5082081;28;1584;-37
2022/02/21 06:22:17;;;;;;;;;;;;;;;26.73;22.16;100722.69;5076491;28;1985;-38
2022/02/21 06:24:43;;;;;;;;;;;;;;;26.62;21.83;100722.09;5072317;28;1099;-37
2022/02/21 06:27:08;;;;;;;;;;;;;;;26.67;22.19;100723.41;5075413;28;827;-36
2022/02/21 06:29:33;;;;;;;;;;;;;;;26.77;21.81;100722.16;5076389;28;834;-36
2022/02/21 06:31:59;;;;;;;;;;;;;;;26.82;21.76;100713.50;5073850;28;1210;-37
2022/02/21 06:34:24;;;;;;;;;;;;;;;26.85;21.81;100704.19;5078235;28;843;-36
2022/02/21 06:36:49;;;;;;;;;;;;;;;26.85;21.88;100707.75;5075252;28;978;-37
2022/02/21 06:39:15;;;;;;;;;;;;;;;26.86;21.92;100704.00;5076162;28;806;-35
2022/02/21 06:41:40;;;;;;;;;;;;;;;27.06;21.79;100703.53;5075686;28;1905;-35
2022/02/21 06:44:05;;;;;;;;;;;;;;;27.20;21.96;100711.81;5075334;28;872;-37
2022/02/21 06:46:31;;;;;;;;;;;;;;;27.27;21.69;100715.47;5074132;28;930;-37
2022/02/21 06:48:56;;;;;;;;;;;;;;;27.19;21.61;100711.00;5073321;28;1490;-36
2022/02/21 06:51:21;;;;;;;;;;;;;;;27.19;21.67;100705.63;5077378;28;1359;-37
2022/02/21 06:53:47;;;;;;;;;;;;;;;27.34;21.78;100692.09;5074856;28;1291;-38
2022/02/21 06:56:12;;;;;;;;;;;;;;;27.48;21.63;100689.56;5085739;28;1352;-37
2022/02/21 06:58:37;;;;;;;;;;;;;;;27.42;21.78;100685.78;5080827;28;1396;-34
2022/02/21 07:01:03;;;;;;;;;;;;;;;26.85;22.39;100672.66;5070482;28;1902;-35
2022/02/21 07:03:28;;;;;;;;;;;;;;;26.36;23.08;100672.03;5074987;28;1170;-40
2022/02/21 07:05:53;;;;;;;;;;;;;;;26.49;22.89;100670.59;5073972;28;1050;-37
2022/02/21 07:08:19;;;;;;;;;;;;;;;26.82;22.56;100670.31;5081413;28;1213;-39
2022/02/21 07:10:44;;;;;;;;;;;;;;;26.85;22.54;100661.88;5074902;28;941;-37
2022/02/21 07:13:09;;;;;;;;;;;;;;;26.88;22.70;100656.09;5079409;28;767;-40
2022/02/21 07:15:35;;;;;;;;;;;;;;;27.02;22.15;100650.94;5070189;28;821;-40
2022/02/21 07:18:00;;;;;;;;;;;;;;;27.14;21.83;100659.41;5073999;28;909;-40
2022/02/21 07:20:26;;;;;;;;;;;;;;;27.21;21.89;100657.63;5075156;28;794;-40
2022/02/21 07:22:52;;;;;;;;;;;;;;;27.29;21.67;100656.72;5074947;28;1893;-40
2022/02/21 07:25:17;;;;;;;;;;;;;;;27.36;21.62;100654.94;5074952;28;810;-40
2022/02/21 07:27:43;;;;;;;;;;;;;;;27.73;21.17;100648.75;5074861;28;966;-39
2022/02/21 07:30:09;;;;;;;;;;;;;;;27.59;21.44;100651.25;5071651;28;1110;-40
2022/02/21 07:32:35;;;;;;;;;;;;;;;27.39;21.56;100643.75;5071412;28;1183;-39
2022/02/21 07:35:00;;;;;;;;;;;;;;;27.53;21.81;100645.81;5071284;28;1130;-39
2022/02/21 07:37:25;;;;;;;;;;;;;;;27.71;21.47;100645.44;5071680;28;1245;-37
2022/02/21 07:39:50;;;;;;;;;;;;;;;27.92;21.07;100649.19;5077410;28;1160;-39
2022/02/21 07:42:17;;;;;;;;;;;;;;;28.07;21.21;100641.88;5075158;28;1996;-41
2022/02/21 07:44:42;;;;;;;;;;;;;;;27.91;21.02;100636.72;5075993;28;1457;-39
2022/02/21 07:47:09;;;;;;;;;;;;;;;27.89;21.04;100639.59;5078079;28;1293;-39
2022/02/21 07:49:34;;;;;;;;;;;;;;;27.92;21.19;100641.94;5083322;28;1353;-40
2022/02/21 07:51:59;;;;;;;;;;;;;;;28.02;21.48;100635.34;5077816;28;1208;-39
2022/02/21 07:54:25;;;;;;;;;;;;;;;28.44;21.11;100636.44;5080042;28;1530;-37
2022/02/21 07:56:50;;;;;;;;;;;;;;;28.41;20.78;100636.78;5082752;28;1261;-37
2022/02/21 07:59:17;;;;;;;;;;;;;;;28.38;20.76;100634.47;5077594;28;1396;-36
2022/02/21 08:01:42;;;;;;;;;;;;;;;27.95;21.20;100625.31;5074768;28;1886;-36
2022/02/21 08:04:08;;;;;;;;;;;;;;;28.08;21.02;100616.50;5081860;28;1226;-39
2022/02/21 08:06:33;;;;;;;;;;;;;;;28.56;20.28;100625.06;5077582;28;1187;-38
2022/02/21 08:08:58;;;;;;;;;;;;;;;27.09;20.09;100619.44;5079665;28;1182;-38
2022/02/21 08:11:24;;;;;;;;;;;;;;;26.69;20.26;100624.25;5078244;28;1209;-37
2022/02/21 08:13:49;;;;;;;;;;;;;;;26.37;20.56;100616.25;5078666;28;860;-37
2022/02/21 08:16:15;;;;;;;;;;;;;;;25.85;21.24;100610.50;5077501;28;788;-37
2022/02/21 08:18:40;;;;;;;;;;;;;;;25.19;22.00;100607.94;5076827;28;1187;-36
2022/02/21 08:21:06;;;;;;;;;;;;;;;25.47;22.05;100609.34;5084960;28;1960;-38
2022/02/21 08:23:31;;;;;;;;;;;;;;;25.54;21.81;100607.59;5079610;28;1590;-38
2022/02/21 08:25:56;;;;;;;;;;;;;;;25.44;21.71;100607.81;5076600;28;1233;-37
2022/02/21 08:28:23;;;;;;;;;;;;;;;25.42;21.54;100604.47;5081354;28;1311;-36
2022/02/21 08:30:48;;;;;;;;;;;;;;;25.34;21.45;100606.38;5081690;28;1287;-37
2022/02/21 08:33:13;;;;;;;;;;;;;;;25.35;21.61;100613.41;5079568;28;1550;-37
2022/02/21 08:35:39;;;;;;;;;;;;;;;25.25;21.76;100601.03;5079216;28;1205;-35
2022/02/21 08:38:04;;;;;;;;;;;;;;;25.39;21.76;100593.22;5082008;28;1241;-37
2022/02/21 08:40:30;;;;;;;;;;;;;;;25.55;21.37;100582.38;5081853;28;1181;-35
2022/02/21 08:42:55;;;;;;;;;;;;;;;25.50;21.59;100583.91;5076969;28;1930;-36
2022/02/21 08:45:20;;;;;;;;;;;;;;;25.60;21.38;100583.69;5079024;28;1230;-44
2022/02/21 08:47:46;;;;;;;;;;;;;;;25.83;21.38;100588.28;5079702;28;1205;-43
2022/02/21 08:50:14;;;;;;;;;;;;;;;25.80;21.21;100574.19;5077273;28;878;-44
2022/02/21 08:52:40;;;;;;;;;;;;;;;25.70;21.23;100570.88;5077959;28;1241;-44
2022/02/21 08:55:09;;;;;;;;;;;;;;;25.38;21.86;100570.00;5080128;28;1265;-44
2022/02/21 08:57:35;;;;;;;;;;;;;;;25.41;21.85;100575.03;5077941;28;1193;-44
2022/02/21 09:00:02;;;;;;;;;;;;;;;25.49;21.71;100563.38;5079174;28;845;-45
2022/02/21 09:02:27;;;;;;;;;;;;;;;25.63;21.66;100556.41;5082178;28;1907;-44
2022/02/21 09:04:52;;;;;;;;;;;;;;;25.85;21.62;100553.94;5074333;28;1296;-44
2022/02/21 09:07:17;;;;;;;;;;;;;;;25.86;21.15;100550.22;5078698;28;1501;-45
2022/02/21 09:09:43;;;;;;;;;;;;;;;25.96;21.07;100555.38;5078482;28;745;-44
2022/02/21 09:12:08;;;;;;;;;;;;;;;25.92;21.17;100553.03;5077121;28;1047;-44
2022/02/21 09:14:33;;;;;;;;;;;;;;;25.95;20.95;100549.16;5084285;28;1170;-45
2022/02/21 09:16:59;;;;;;;;;;;;;;;25.62;21.74;100542.09;5074621;28;1190;-45
2022/02/21 09:19:24;;;;;;;;;;;;;;;24.60;22.99;100538.25;5079507;28;1431;-45
2022/02/21 09:21:49;;;;;;;;;;;;;;;24.68;23.16;100536.41;5077066;28;1923;-41
2022/02/21 09:24:15;;;;;;;;;;;;;;;26.04;21.75;100531.88;5077467;28;1428;-41
2022/02/21 09:26:40;;;;;;;;;;;;;;;26.19;21.54;100528.41;5077324;28;1369;-42
2022/02/21 09:29:05;;;;;;;;;;;;;;;26.46;21.58;100522.63;5088582;28;1376;-40
2022/02/21 09:31:30;;;;;;;;;;;;;;;26.63;21.59;100520.56;5077339;28;1569;-43
2022/02/21 09:33:56;;;;;;;;;;;;;;;26.12;23.11;100511.28;5081457;28;1277;-37
2022/02/21 09:36:21;;;;;;;;;;;;;;;26.50;22.13;100513.13;5076487;28;1466;-41
2022/02/21 09:38:47;;;;;;;;;;;;;;;26.64;22.02;100504.19;5076275;28;786;-42
2022/02/21 09:41:12;;;;;;;;;;;;;;;26.83;21.49;100499.28;5076089;28;2034;-39
2022/02/21 09:43:38;;;;;;;;;;;;;;;27.01;21.68;100500.72;5077070;28;935;-40
2022/02/21 09:46:04;;;;;;;;;;;;;;;27.14;21.26;100494.72;5077138;28;758;-40
2022/02/21 09:48:29;;;;;;;;;;;;;;;27.16;21.47;100492.63;5076704;28;923;-39
2022/02/21 09:51:00;;;;;;;;;;;;;;;27.23;21.31;100488.16;5076724;28;850;-38
2022/02/21 09:53:32;;;;;;;;;;;;;;;27.38;21.41;100487.28;5076459;28;829;-40
2022/02/21 09:55:57;;;;;;;;;;;;;;;27.39;21.26;100484.38;5075838;28;781;-40
2022/02/21 09:58:22;;;;;;;;;;;;;;;27.22;21.77;100470.31;5076934;28;900;-41
2022/02/21 10:00:49;;;;;;;;;;;;;;;27.22;21.23;100467.59;5069797;28;864;-48
2022/02/21 10:03:17;;;;;;;;;;;;;;;26.92;21.84;100462.22;5065751;28;1902;-46
2022/02/21 10:05:48;;;;;;;;;;;;;;;26.79;22.13;100457.50;5076120;28;884;-46
2022/02/21 10:08:15;;;;;;;;;;;;;;;26.71;22.17;100452.22;5075935;28;853;-43
2022/02/21 10:10:40;;;;;;;;;;;;;;;26.59;22.45;100454.53;5069799;28;1255;-44
2022/02/21 10:13:05;;;;;;;;;;;;;;;26.59;22.16;100452.66;5075500;28;883;-42
2022/02/21 10:15:31;;;;;;;;;;;;;;;26.75;22.54;100448.09;5071439;28;1373;-40
2022/02/21 10:18:12;;;;;;;;;;;;;;;27.20;22.43;100447.19;5073882;28;1475;-42
2022/02/21 10:20:50;;;;;;;;;;;;;;;26.71;22.76;100442.25;5074153;28;1213;-38
2022/02/21 10:23:15;;;;;;;;;;;;;;;27.33;22.73;100433.84;5067171;28;1948;-48
2022/02/21 10:25:43;;;;;;;;;;;;;;;27.51;22.11;100433.38;5070046;28;1334;-38
2022/02/21 10:28:08;;;;;;;;;;;;;;;27.38;21.99;100427.84;5069983;28;1536;-37
2022/02/21 10:30:34;;;;;;;;;;;;;;;27.27;22.17;100423.81;5070505;28;1377;-40
2022/02/21 10:32:59;;;;;;;;;;;;;;;27.12;21.97;100421.16;5068496;28;1267;-40
2022/02/21 10:35:27;;;;;;;;;;;;;;;27.02;23.68;100414.22;5071853;28;1340;-41
2022/02/21 10:37:57;;;;;;;;;;;;;;;27.07;22.28;100410.09;5073542;28;1234;-39
2022/02/21 10:40:29;;;;;;;;;;;;;;;27.00;21.85;100400.03;5071992;28;1281;-41
2022/02/21 10:43:06;;;;;;;;;;;;;;;26.82;22.75;100395.06;5074897;28;1980;-35
2022/02/21 10:45:31;;;;;;;;;;;;;;;27.07;22.03;100385.78;5070306;28;1214;-38
2022/02/21 10:48:02;;;;;;;;;;;;;;;26.78;23.57;100389.19;5076685;28;1197;-41
2022/02/21 10:50:28;;;;;;;;;;;;;;;26.84;22.92;100379.50;5077233;28;1387;-39
2022/02/21 10:52:53;;;;;;;;;;;;;;;27.16;21.90;100375.72;5074491;28;1312;-41
2022/02/21 10:55:19;;;;;;;;;;;;;;;27.16;21.81;100360.34;5070587;28;1339;-47
2022/02/21 10:57:44;;;;;;;;;;;;;;;26.65;23.20;100362.06;5075007;28;1686;-41
2022/02/21 11:00:10;;;;;;;;;;;;;;;26.47;23.37;100351.69;5072147;28;1350;-42
2022/02/21 11:02:37;;;;;;;;;;;;;;;26.50;23.29;100354.00;5074032;28;1878;-48
2022/02/21 11:05:03;;;;;;;;;;;;;;;26.82;22.91;100338.38;5071470;28;1236;-48
2022/02/21 11:07:28;;;;;;;;;;;;;;;26.93;23.05;100337.03;5069232;28;1415;-46
2022/02/21 11:09:58;;;;;;;;;;;;;;;26.97;22.75;100330.25;5069111;28;1248;-44
2022/02/21 11:12:25;;;;;;;;;;;;;;;26.78;22.56;100329.84;5068908;28;1411;-40
2022/02/21 11:14:50;;;;;;;;;;;;;;;26.64;23.43;100319.94;5070291;28;1435;-41
2022/02/21 11:17:16;;;;;;;;;;;;;;;27.02;22.73;100314.34;5068927;28;1386;-43
2022/02/21 11:19:45;;;;;;;;;;;;;;;27.06;22.97;100308.56;5069716;28;1388;-45
2022/02/21 11:22:10;;;;;;;;;;;;;;;26.73;22.88;100305.28;5074015;28;1965;-47
2022/02/21 11:24:36;;;;;;;;;;;;;;;26.67;23.11;100302.50;5070314;28;1419;-46
2022/02/21 11:27:14;;;;;;;;;;;;;;;26.57;22.74;100294.72;5070204;28;1395;-46
2022/02/21 11:29:52;;;;;;;;;;;;;;;26.95;22.77;100291.81;5072237;28;1376;-40
2022/02/21 11:32:17;;;;;;;;;;;;;;;26.76;21.97;100283.31;5068424;28;1344;-43
2022/02/21 11:35:10;;;;;;;;;;;;;;;27.25;22.64;100280.03;5074203;28;1460;-41
2022/02/21 11:37:35;;;;;;;;;;;;;;;27.42;21.44;100272.50;5073022;28;1236;-49
2022/02/21 11:40:01;;;;;;;;;;;;;;;27.44;21.00;100269.59;5072408;28;1582;-40
2022/02/21 11:42:30;;;;;;;;;;;;;;;26.89;21.84;100271.00;5071860;28;1894;-44
2022/02/21 11:44:59;;;;;;;;;;;;;;;27.10;21.36;100262.06;5072166;28;1130;-49
2022/02/21 11:47:38;;;;;;;;;;;;;;;27.12;22.37;100251.06;5070918;28;1258;-48
2022/02/21 11:50:06;;;;;;;;;;;;;;;26.98;22.95;100247.38;5077949;28;1542;-44
2022/02/21 11:52:33;;;;;;;;;;;;;;;26.85;23.56;100245.41;5071560;28;1424;-45
2022/02/21 11:54:58;;;;;;;;;;;;;;;26.73;23.46;100248.63;5069625;28;1554;-41
2022/02/21 11:57:27;;;;;;;;;;;;;;;26.93;23.41;100247.13;5072912;28;1361;-42
2022/02/21 11:59:52;;;;;;;;;;;;;;;27.14;22.40;100238.22;5065933;28;1480;-44
2022/02/21 12:02:18;;;;;;;;;;;;;;;26.98;22.76;100240.13;5069164;28;1964;-43
2022/02/21 12:04:56;;;;;;;;;;;;;;;26.80;23.31;100227.09;5069313;28;1242;-42
2022/02/21 12:07:36;;;;;;;;;;;;;;;26.57;23.93;100232.69;5077510;28;1246;-43
2022/02/21 12:10:14;;;;;;;;;;;;;;;26.26;24.35;100221.97;5072529;28;1452;-44
2022/02/21 12:12:52;;;;;;;;;;;;;;;26.05;24.81;100217.38;5071293;28;1566;-43
2022/02/21 12:15:18;;;;;;;;;;;;;;;25.83;24.39;100214.59;5073915;28;1221;-40
2022/02/21 12:17:43;;;;;;;;;;;;;;;25.89;23.85;100200.38;5075235;28;1253;-39
2022/02/21 12:20:27;;;;;;;;;;;;;;;25.99;23.08;100200.09;5075014;28;1375;-37
2022/02/21 12:23:07;;;;;;;;;;;;;;;25.75;23.28;100193.16;5066036;28;1945;-39
2022/02/21 12:25:38;;;;;;;;;;;;;;;25.96;23.46;100194.25;5075651;28;1379;-41
2022/02/21 12:28:12;;;;;;;;;;;;;;;25.74;24.39;100200.41;5075841;28;1316;-43
2022/02/21 12:30:47;;;;;;;;;;;;;;;25.59;24.82;100183.41;5071799;28;1448;-41
2022/02/21 12:33:13;;;;;;;;;;;;;;;25.94;24.37;100188.22;5080026;28;1232;-39
2022/02/21 12:35:53;;;;;;;;;;;;;;;26.25;23.74;100181.72;5078474;28;1363;-43
2022/02/21 12:38:18;;;;;;;;;;;;;;;26.27;22.62;100174.28;5072245;28;1530;-41
2022/02/21 12:41:13;;;;;;;;;;;;;;;26.21;22.40;100183.13;5070877;28;1360;-41
2022/02/21 12:43:47;;;;;;;;;;;;;;;26.40;23.38;100182.53;5059139;28;1323;-40
2022/02/21 12:46:13;;;;;;;;;;;;;;;26.78;24.34;100175.19;5076679;28;1359;-40